KPIR/PIR METAR and TAF weather

Enter ICAO airport designator
Station Type Date Time Source
KPIR METAR 2022/06/28 23:53 UTC NOAA

KPIR 282353Z AUTO 12009KT 10SM CLR 29/13 A3002 RMK AO2 SLP154 T02890133 10306 20278 58014


Station Type Date Time Source
KPIR Decoded METAR 2022/06/28 23:53 UTC NOAA

PIERRE REGIONAL AIRPORT, SD, United States (KPIR) 44-23N 100-17W 526M
Jun 28, 2022 - 07:53 PM EDT / 2022.06.28 2353 UTC
Wind: from the ESE (120 degrees) at 10 MPH (9 KT):0
Visibility: 10 mile(s):0
Sky conditions: clear
Temperature: 84.0 F (28.9 C)
Dew Point: 55.9 F (13.3 C)
Relative Humidity: 38%
Pressure (altimeter): 30.02 in. Hg (1016 hPa)
Pressure tendency: 0.04 inches (1.4 hPa) lower than three hours ago
ob: KPIR 282353Z AUTO 12009KT 10SM CLR 29/13 A3002 RMK AO2 SLP154 T02890133 10306 20278 58014
cycle: 0

Station Type Date Time Source
KPIR TAF 2022/06/28 18:22 UTC NOAA

TAF KPIR 281720Z 2818/2918 VRB05KT P6SM SKC
FM290100 11010G18KT P6SM SKC
FM290800 12012G20KT P6SM FEW250
FM291400 15015G26KT P6SM FEW250

Example: see airport list